Flight Track Log - Related Links

Times and Time Zones

All times are in EDT time to prevent confusion due to time zone crossing. See the SWA868 flight status page for this flight to view local times or setup timezone preferences in your user account.

Time Position Orientation Groundspeed Altitude Reporting Facility
EDT Latitude Longitude Course Direction KTS MPH feet Rate Location/Type
Fri 09:15:34 PM 28.0000 -82.5333 North 151 174 1,000  Level Tampa TRACON
Fri 09:16:52 PM 28.0667 -82.5333 360° North 214 246 3,500 2,345 Climbing Tampa TRACON
Fri 09:18:28 PM 28.1683 -82.5489 352° North 239 275 7,800 2,885 Climbing Jacksonville Center
Fri 09:19:28 PM 28.2456 -82.5628 351° North 253 291 11,000 2,750 Climbing Jacksonville Center
Fri 09:20:28 PM 28.3394 -82.5767 353° North 299 344 13,300 2,800 Climbing Jacksonville Center
Fri 09:21:00 PM 28.1874 -82.5667 North  Level FlightAware Approximate
Fri 09:21:28 PM 28.4375 -82.5833 357° North 333 383 16,600  Level Jacksonville Center
Fri 09:22:28 PM 28.5419 -82.5853 359° North 355 409 18,700 2,450 Climbing Jacksonville Center
Fri 09:23:28 PM 28.6525 -82.5897 358° North 377 434 21,500 2,600 Climbing Jacksonville Center
Fri 09:24:28 PM 28.7506 -82.6014 354° North 388 447 23,900 2,250 Climbing Jacksonville Center
Fri 09:25:28 PM 28.8675 -82.6175 353° North 402 463 26,000 2,000 Climbing Jacksonville Center
Fri 09:26:28 PM 28.9822 -82.6314 354° North 408 470 27,900 1,850 Climbing Jacksonville Center
Fri 09:27:28 PM 29.1056 -82.6503 352° North 420 483 29,700 1,950 Climbing Jacksonville Center
Fri 09:28:28 PM 29.2225 -82.6667 353° North 425 489 31,800 2,050 Climbing Jacksonville Center
Fri 09:29:28 PM 29.3394 -82.6806 354° North 425 489 33,800 1,800 Climbing Jacksonville Center
Fri 09:30:28 PM 29.4564 -82.6922 355° North 420 483 35,400 1,550 Climbing Jacksonville Center
Fri 09:31:28 PM 29.5900 -82.6944 359° North 425 489 36,900 1,250 Climbing Jacksonville Center
Fri 09:32:28 PM 29.7069 -82.6964 359° North 425 489 37,900 1,050 Climbing Jacksonville Center
Fri 09:33:28 PM 29.8258 -82.6939 North 419 482 39,000 550 Climbing Jacksonville Center
Fri 09:34:28 PM 29.9447 -82.6936 360° North 419 482 39,000  Level Jacksonville Center
Fri 09:35:28 PM 30.0514 -82.6886 North 419 482 39,000  Level Jacksonville Center
Fri 09:36:28 PM 30.1703 -82.6883 360° North 419 482 39,000  Level Jacksonville Center
Fri 09:37:28 PM 30.2872 -82.6856 North 419 482 39,000  Level Jacksonville Center
Fri 09:38:28 PM 30.4019 -82.6856 360° North 419 482 39,000  Level Jacksonville Center
Fri 09:39:28 PM 30.5211 -82.6781 North 419 482 39,000  Level Jacksonville Center
Fri 09:40:28 PM 30.6442 -82.6222 21° North 425 489 39,000  Level Jacksonville Center
Fri 09:41:28 PM 30.7608 -82.5661 22° Northeast 430 495 39,000  Level Jacksonville Center
Fri 09:42:28 PM 30.8736 -82.5103 23° Northeast 435 501 39,000  Level Jacksonville Center
Fri 09:43:28 PM 30.9714 -82.4614 23° Northeast 430 495 39,000  Level Jacksonville Center
Fri 09:44:28 PM 31.0842 -82.4075 22° Northeast 430 495 39,000  Level Jacksonville Center
Fri 09:45:28 PM 31.1925 -82.3533 23° Northeast 430 495 39,000  Level Jacksonville Center
Fri 09:46:28 PM 31.3028 -82.3017 22° Northeast 430 495 39,000  Level Jacksonville Center
Fri 09:47:28 PM 31.4111 -82.2500 22° Northeast 425 489 39,000  Level Jacksonville Center
Fri 09:48:28 PM 31.5194 -82.1956 23° Northeast 425 489 39,000  Level Jacksonville Center
Fri 09:49:28 PM 31.6422 -82.1311 24° Northeast 420 483 39,000  Level Jacksonville Center
Fri 09:50:28 PM 31.7525 -82.0767 23° Northeast 426 490 39,000  Level Jacksonville Center
Fri 09:51:28 PM 31.8567 -82.0267 22° Northeast 433 498 39,000  Level Jacksonville Center
Fri 09:52:28 PM 31.9772 -81.9644 24° Northeast 433 498 39,000  Level Jacksonville Center
Fri 09:53:28 PM 32.0917 -81.9142 20° North 433 498 39,000  Level Jacksonville Center
Fri 09:54:28 PM 32.1936 -81.8664 22° Northeast 433 498 39,000  Level Jacksonville Center
Fri 09:55:28 PM 32.3142 -81.8086 22° Northeast 433 498 39,000  Level Jacksonville Center
Fri 09:56:28 PM 32.4244 -81.7581 21° North 427 491 39,000  Level Jacksonville Center
Fri 09:57:28 PM 32.5264 -81.7075 23° Northeast 432 497 39,000  Level Jacksonville Center
Fri 09:58:28 PM 32.6403 -81.6219 32° Northeast 432 497 39,000  Level Jacksonville Center
Fri 09:59:28 PM 32.7314 -81.5417 37° Northeast 442 509 39,000  Level Jacksonville Center
Fri 10:00:28 PM 32.8369 -81.4561 34° Northeast 447 514 39,000  Level Jacksonville Center
Fri 10:01:28 PM 32.9403 -81.3678 36° Northeast 447 514 39,000  Level Jacksonville Center
Fri 10:02:28 PM 33.0414 -81.2819 35° Northeast 447 514 39,000  Level Jacksonville Center
Fri 10:03:28 PM 33.1467 -81.1931 35° Northeast 447 514 39,000  Level Jacksonville Center
Fri 10:04:28 PM 33.2478 -81.1067 36° Northeast 447 514 39,000  Level Jacksonville Center
Fri 10:05:28 PM 33.3508 -81.0203 35° Northeast 447 514 39,000  Level Jacksonville Center
Fri 10:06:28 PM 33.4539 -80.9333 35° Northeast 447 514 39,000  Level Jacksonville Center
Fri 10:07:28 PM 33.5486 -80.8514 36° Northeast 438 504 39,000  Level Jacksonville Center
Fri 10:08:28 PM 33.6433 -80.7694 36° Northeast 427 491 39,000  Level Jacksonville Center
Fri 10:09:28 PM 33.7400 -80.6872 35° Northeast 427 491 39,000  Level Jacksonville Center
Fri 10:10:28 PM 33.8344 -80.6050 36° Northeast 422 486 39,000  Level Jacksonville Center
Fri 10:11:28 PM 33.9392 -80.5144 36° Northeast 422 486 39,000  Level Jacksonville Center
Fri 10:12:28 PM 34.0294 -80.4344 36° Northeast 422 486 39,000  Level Jacksonville Center
Fri 10:13:28 PM 34.1258 -80.3539 35° Northeast 422 486 39,000  Level Jacksonville Center
Fri 10:14:28 PM 34.2181 -80.2708 37° Northeast 422 486 39,000  Level Jacksonville Center
Fri 10:15:28 PM 34.3103 -80.1850 38° Northeast 417 480 39,000  Level Jacksonville Center
Fri 10:17:06 PM 34.4600 -80.0553 36° Northeast 415 478 39,000  Level Washington Center
Fri 10:18:07 PM 34.5503 -79.9794 35° Northeast 421 484 39,000  Level Washington Center
Fri 10:19:07 PM 34.6389 -79.8958 38° Northeast 421 484 39,000  Level Washington Center
Fri 10:20:05 PM 34.7336 -79.8150 35° Northeast 415 478 39,000  Level Washington Center
Fri 10:21:06 PM 34.8283 -79.7314 36° Northeast 415 478 39,000  Level Washington Center
Fri 10:22:06 PM 34.9208 -79.6475 37° Northeast 415 478 39,000  Level Washington Center
Fri 10:23:07 PM 35.0136 -79.5633 37° Northeast 415 478 39,000  Level Washington Center
Fri 10:24:07 PM 35.1100 -79.4817 35° Northeast 415 478 39,000  Level Washington Center
Fri 10:25:05 PM 35.2025 -79.3972 37° Northeast 415 478 39,000  Level Washington Center
Fri 10:26:05 PM 35.2950 -79.3125 37° Northeast 415 478 39,000  Level Washington Center
Fri 10:27:07 PM 35.4022 -79.2181 36° Northeast 420 483 39,000  Level Washington Center
Fri 10:28:07 PM 35.4881 -79.1403 36° Northeast 420 483 39,000  Level Washington Center
Fri 10:29:07 PM 35.5886 -79.0503 36° Northeast 415 478 39,000  Level Washington Center
Fri 10:30:05 PM 35.6786 -78.9647 38° Northeast 415 478 39,000  Level Washington Center
Fri 10:31:05 PM 35.7731 -78.8792 36° Northeast 415 478 39,000  Level Washington Center
Fri 10:32:05 PM 35.8650 -78.7958 36° Northeast 415 478 39,000  Level Washington Center
Fri 10:33:05 PM 35.9589 -78.7125 36° Northeast 415 478 39,000  Level Washington Center
Fri 10:34:06 PM 36.0528 -78.6289 36° Northeast 415 478 39,000  Level Washington Center
Fri 10:35:06 PM 36.1467 -78.5475 35° Northeast 415 478 39,000  Level Washington Center
Fri 10:36:06 PM 36.2428 -78.4636 35° Northeast 415 478 39,000  Level Washington Center
Fri 10:37:07 PM 36.3364 -78.3794 36° Northeast 415 478 39,000  Level Washington Center
Fri 10:38:05 PM 36.4322 -78.2922 36° Northeast 415 478 39,000  Level Washington Center
Fri 10:39:06 PM 36.5281 -78.2078 35° Northeast 415 478 39,000  Level Washington Center
Fri 10:40:05 PM 36.6089 -78.1328 37° Northeast 410 472 39,000  Level Washington Center
Fri 10:41:05 PM 36.7047 -78.0453 36° Northeast 410 472 39,000  Level Washington Center
Fri 10:42:06 PM 36.8003 -77.9575 36° Northeast 415 478 39,000  Level Washington Center
Fri 10:43:06 PM 36.8939 -77.8694 37° Northeast 415 478 39,000  Level Washington Center
Fri 10:44:05 PM 36.9872 -77.7786 38° Northeast 415 478 39,000  Level Washington Center
Fri 10:45:06 PM 37.0828 -77.6903 36° Northeast 421 484 39,000  Level Washington Center
Fri 10:46:06 PM 37.1783 -77.5992 37° Northeast 421 484 39,000  Level Washington Center
Fri 10:47:05 PM 37.2714 -77.5100 37° Northeast 421 484 39,000  Level Washington Center
Fri 10:48:05 PM 37.3667 -77.4183 37° Northeast 421 484 39,000  Level Washington Center
Fri 10:49:05 PM 37.4619 -77.3292 37° Northeast 421 484 39,000  Level Washington Center
Fri 10:50:05 PM 37.5572 -77.2369 37° Northeast 421 484 39,000  Level Washington Center
Fri 10:51:05 PM 37.6542 -77.1447 37° Northeast 426 490 39,000  Level Washington Center
Fri 10:52:07 PM 37.7494 -77.0494 38° Northeast 426 490 39,000  Level Washington Center
Fri 10:53:07 PM 37.8422 -76.9564 38° Northeast 426 490 39,000  Level Washington Center
Fri 10:54:06 PM 37.9392 -76.8661 36° Northeast 426 490 39,000  Level Washington Center
Fri 10:55:06 PM 38.0339 -76.7703 39° Northeast 426 490 39,000  Level Washington Center
Fri 10:56:07 PM 38.1308 -76.6767 37° Northeast 426 490 39,000  Level Washington Center
Fri 10:57:07 PM 38.2256 -76.5803 39° Northeast 432 497 39,000  Level Washington Center
Fri 10:58:05 PM 38.3178 -76.4889 38° Northeast 427 491 39,000  Level Washington Center
Fri 10:59:05 PM 38.4125 -76.3972 37° Northeast 427 491 39,000  Level Washington Center
Fri 11:00:06 PM 38.5067 -76.3028 38° Northeast 427 491 39,000  Level Washington Center
Fri 11:01:07 PM 38.6011 -76.2081 38° Northeast 427 491 39,000  Level Washington Center
Fri 11:02:05 PM 38.7122 -76.1053 36° Northeast 434 499 39,000  Level Washington Center
Fri 11:03:06 PM 38.8042 -76.0072 40° Northeast 434 499 39,000  Level Washington Center
Fri 11:04:05 PM 38.9003 -75.9117 38° Northeast 439 505 39,000  Level Washington Center
Fri 11:05:05 PM 38.9964 -75.8161 38° Northeast 439 505 39,000  Level Washington Center
Fri 11:06:06 PM 39.0925 -75.7200 38° Northeast 439 505 39,000  Level Washington Center
Fri 11:07:07 PM 39.1883 -75.6183 39° Northeast 444 511 39,000  Level Washington Center
Fri 11:08:06 PM 39.2822 -75.5192 39° Northeast 444 511 39,000 -303 Level Washington Center
Fri 11:09:06 PM 39.3781 -75.4225 38° Northeast 439 505 38,400 -800 Descending Washington Center
Fri 11:10:06 PM 39.4736 -75.3253 38° Northeast 444 511 37,400 -958 Descending Washington Center
Fri 11:11:05 PM 39.5714 -75.2253 38° Northeast 444 511 36,500 -908 Descending Washington Center
Fri 11:12:05 PM 39.6689 -75.1197 40° Northeast 444 511 35,600 -466 Descending Washington Center
Fri 11:14:18 PM 39.8750 -74.9419 33° Northeast 425 489 35,000 -188 Descending New York Center
Fri 11:15:16 PM 39.9794 -74.8233 41° Northeast 425 489 35,000  Level New York Center
Fri 11:16:16 PM 40.0747 -74.7747 21° North 404 465 35,000  Level New York Center
Fri 11:17:16 PM 40.1825 -74.7347 16° North 404 465 35,000  Level New York Center
Fri 11:18:18 PM 40.2922 -74.6947 16° North 404 465 35,000  Level New York Center
Fri 11:19:18 PM 40.4039 -74.6547 15° North 404 465 35,000  Level New York Center
Fri 11:20:16 PM 40.5156 -74.6175 14° North 404 465 35,000  Level New York Center
Fri 11:21:16 PM 40.6272 -74.5772 15° North 409 471 35,000  Level New York Center
Fri 11:22:17 PM 40.7392 -74.5369 15° North 409 471 35,000  Level New York Center
Fri 11:24:16 PM 40.9589 -74.4547 16° North 409 471 35,000  Level Boston Center
Fri 11:25:16 PM 41.0700 -74.4169 14° North 409 471 35,000  Level Boston Center
Fri 11:26:16 PM 41.2022 -74.3769 13° North 416 479 35,000  Level Boston Center
Fri 11:27:16 PM 41.3008 -74.3383 16° North 416 479 35,000  Level Boston Center
Fri 11:28:16 PM 41.4161 -74.2947 16° North 416 479 35,000  Level Boston Center
Fri 11:29:16 PM 41.5461 -74.2514 14° North 421 484 35,000  Level Boston Center
Fri 11:30:16 PM 41.6592 -74.2072 16° North 421 484 35,000  Level Boston Center
Fri 11:31:16 PM 41.7725 -74.1658 15° North 421 484 35,000 -450 Level Boston Center
Fri 11:32:16 PM 41.8750 -74.1325 14° North 421 484 34,100 -900 Descending Boston Center
Fri 11:33:16 PM 41.9967 -74.0883 15° North 416 479 33,200 -950 Descending Boston Center
Fri 11:34:16 PM 42.1097 -74.0436 16° North 421 484 32,200 -1,050 Descending Boston Center
Fri 11:35:16 PM 42.2228 -74.0044 14° North 421 484 31,100 -1,050 Descending Boston Center
Fri 11:36:16 PM 42.3319 -73.9622 16° North 416 479 30,100 -900 Descending Boston Center
Fri 11:37:16 PM 42.3933 -73.8822 44° Northeast 388 447 29,300 -1,000 Descending Boston Center
Fri 11:38:16 PM 42.4372 -73.7003 72° East 377 434 28,100 -1,100 Descending Boston Center
Fri 11:39:16 PM 42.4742 -73.5547 71° East 382 440 27,100 -550 Descending Boston Center
Fri 11:40:16 PM 42.5108 -73.4117 71° East 393 452 27,000 -50 Descending Boston Center
Fri 11:41:16 PM 42.5475 -73.2603 72° East 409 471 27,000 -850 Level Boston Center
Fri 11:42:16 PM 42.5861 -73.1111 71° East 414 476 25,300 -1,500 Descending Boston Center
Fri 11:43:16 PM 42.6222 -72.9706 71° East 402 463 24,000 -850 Descending Boston Center
Fri 11:44:16 PM 42.6581 -72.8381 70° East 391 450 23,600 -1,500 Descending Boston Center
Fri 11:45:16 PM 42.6919 -72.6944 72° East 386 444 21,000 -2,700 Descending Boston Center
Fri 11:46:16 PM 42.7275 -72.5617 70° East 378 435 18,200 -2,500 Descending Boston Center
Fri 11:47:16 PM 42.7631 -72.4203 71° East 378 435 16,000 -2,250 Descending Boston Center
Fri 11:48:16 PM 42.7942 -72.2817 73° East 378 435 13,700 -1,600 Descending Boston Center
Fri 11:49:16 PM 42.8022 -72.1714 84° East 353 406 12,800 -1,400 Descending Boston Center
Fri 11:50:16 PM 42.8061 -72.0411 88° East 318 366 10,900 -1,700 Descending Boston Center
Fri 11:51:16 PM 42.7994 -71.9392 95° East 306 352 9,400 -1,250 Descending Boston Center
Fri 11:52:16 PM 42.7928 -71.8261 95° East 281 323 8,400 -1,400 Descending Boston Center
Fri 11:53:16 PM 42.7881 -71.7383 94° East 262 302 6,600 -1,950 Descending Boston Center
Fri 11:54:16 PM 42.7811 -71.6283 95° East 262 302 4,500 -1,450 Descending Boston Center
Fri 11:55:16 PM 42.7742 -71.5464 97° East 246 283 3,700 -700 Descending Boston Center
Fri 11:56:16 PM 42.7775 -71.4586 87° East 214 246 3,100 -850 Descending Boston Center
Fri 11:57:16 PM 42.7958 -71.4017 66° East 182 209 2,000 -500 Descending Boston Center
Fri 11:58:16 PM 42.8394 -71.3783 21° North 155 178 2,100 -350 Climbing Boston Center
Fri 11:59:16 PM 42.8750 -71.4003 336° Northwest 140 161 1,300 -800 Descending Boston Center
Sat 12:00:16 AM 42.9128 -71.4225 337° Northwest 145 167 500 14,850 Descending Boston Center
Sat 12:01:16 AM 42.9461 -71.4417 337° Northwest 145 167 31,000 15,250 Climbing Boston Center
Sat 12:02:16 AM 42.9819 -71.4611 338° Northwest 145 167 31,000  Level Boston Center

Login

Don't have an account? Register now (free) for customized features, flight alerts, and more!